KJZI

Charleston Executive Airport

Charleston, South Carolina, USA
METAR KJZI 221355Z AUTO 01007KT 6SM HZ CLR 16/08 A3032 RMK AO2 PWINO
Observed Flight Rules
Oct-22 @ 13:55 UTC (25 minutes ago) Visual Flight Rules
Wind Visibility Clouds Conditions
10° at 7 knots 6 miles
  • Clear skies
  • Haze
Temperatures Readings
Current 16°C / 61°F
Dewpoint 8°C / 46°F
Humidity 59%
Altimeter 30.32" Hg
Pressure 1027 hPa
Elevation 6
METAR KJZI 221355Z AUTO 01007KT 6SM HZ CLR 16/08 A3032 RMK AO2 PWINO
Observed Flight Rules
Oct-22 @ 13:55 UTC
(25 minutes ago)
VFR
Wind Visibility
10° at 7 knots 6 miles
Clouds
  • Clear skies
Conditions
  • Haze
Temperature Dewpoint
16°C / 61°F 8°C / 46°F
Humidity Altimeter Pressure
59% 30.32" Hg 1027 hPa